This is the latest recevied weather packets stored in our database for station/object K5KVN. If no packets are shown the sender has not sent any weather packets the latest 10 day(s).
| Time | Temp. | Humidity | Pressure | Rain* | Wind** | Luminosity | Snow |
|---|---|---|---|---|---|---|---|
| 1788290049 | 35.56° C | 43% | 1017.9 hPa | 0 mm | - | - | - |
| 1788289447 | 36.67° C | 42% | 1018 hPa | 0 mm | - | - | - |
| 1788288846 | 35.56° C | 44% | 1018.1 hPa | 0 mm | - | - | - |
| 1788288246 | 35.56° C | 45% | 1018.2 hPa | 0 mm | - | - | - |
| 1788287705 | 36.67° C | 43% | 1018.3 hPa | 0 mm | - | - | - |
| 1788287046 | 36.11° C | 44% | 1018.6 hPa | 0 mm | - | - | - |
| 1788286444 | 36.11° C | 45% | 1018.8 hPa | 0 mm | - | - | - |
| 1788285846 | 35.56° C | 47% | 1018.9 hPa | 0 mm | - | - | - |
| 1788285244 | 35° C | 48% | 1019 hPa | 0 mm | - | - | - |
| 1788284644 | 34.44° C | 47% | 1019.3 hPa | 0 mm | - | - | - |
| 1788284041 | 35.56° C | 46% | 1019.4 hPa | 0 mm | - | - | - |
| 1788283440 | 35.56° C | 47% | 1019.4 hPa | 0 mm | - | - | - |
| 1788282841 | 35.56° C | 47% | 1019.6 hPa | 0 mm | - | - | - |
| 1788282240 | 35.56° C | 47% | 1019.6 hPa | 0 mm | - | - | - |
| 1788281639 | 35° C | 50% | 1019.8 hPa | 0 mm | - | - | - |
| 1788281039 | 35.56° C | 49% | 1019.9 hPa | 0 mm | - | - | - |
| 1788280437 | 35.56° C | 50% | 1020.1 hPa | 0 mm | - | - | - |
| 1788279838 | 35° C | 51% | 1020.1 hPa | 0 mm | - | - | - |
| 1788279297 | 34.44° C | 51% | 1020.1 hPa | 0 mm | - | - | - |
| 1788278698 | 34.44° C | 52% | 1020.1 hPa | 0 mm | - | - | - |
| 1788278036 | 33.89° C | 53% | 1020.1 hPa | 0 mm | - | - | - |
| 1788277436 | 33.33° C | 56% | 1020.2 hPa | 0 mm | - | - | - |
| 1788276836 | 33.33° C | 55% | 1020.5 hPa | 0 mm | - | - | - |
| 1788276235 | 32.78° C | 58% | 1020.3 hPa | 0 mm | - | - | - |
| 1788275695 | 32.22° C | 58% | 1020.3 hPa | 0 mm | - | - | - |
* Rain latest hour (hover to see other rain measurements)
** Current wind speed in m/s (hover to see current wind gust speed)